createdAt,value
2019-02-21T00:06:37.796Z,75.74
2019-02-21T00:16:37.755Z,75.66
2019-02-21T00:26:37.731Z,75.61
2019-02-21T00:36:37.771Z,74.59
2019-02-21T00:46:37.971Z,74.41
2019-02-21T00:56:37.799Z,73.72
2019-02-21T01:06:37.771Z,73.81
2019-02-21T01:16:37.728Z,73.81
2019-02-21T01:26:38.046Z,74.04
2019-02-21T01:36:37.797Z,74.90
2019-02-21T01:46:37.820Z,75.96
2019-02-21T01:56:37.724Z,76.79
2019-02-21T02:06:37.726Z,77.13
2019-02-21T02:16:37.792Z,78.20
2019-02-21T02:26:38.041Z,78.30
2019-02-21T02:36:37.783Z,79.72
2019-02-21T02:46:37.815Z,80.31
2019-02-21T02:56:37.804Z,81.01
2019-02-21T03:06:37.777Z,80.67
2019-02-21T03:16:37.990Z,81.12
2019-02-21T03:26:37.833Z,80.72
2019-02-21T03:36:37.762Z,80.15
2019-02-21T03:46:37.793Z,79.54
2019-02-21T03:56:38.653Z,79.49
2019-02-21T04:06:37.767Z,79.73
2019-02-21T04:16:37.882Z,79.46
2019-02-21T04:26:37.796Z,79.66
2019-02-21T04:36:37.740Z,80.72
2019-02-21T04:46:37.757Z,81.08
2019-02-21T04:56:37.733Z,81.15
2019-02-21T05:06:37.823Z,80.87
2019-02-21T05:16:37.738Z,81.24
2019-02-21T05:26:37.750Z,80.89
2019-02-21T05:36:46.247Z,80.80
2019-02-21T05:46:37.760Z,80.65
2019-02-21T05:56:39.720Z,80.13
2019-02-21T06:06:37.694Z,79.96
2019-02-21T06:16:38.619Z,79.14
2019-02-21T06:26:39.537Z,79.45
2019-02-21T06:36:37.880Z,79.57
2019-02-21T06:46:37.884Z,79.78
2019-02-21T06:56:38.554Z,79.44
2019-02-21T07:06:39.290Z,79.23
2019-02-21T07:16:37.859Z,79.04
2019-02-21T07:36:43.177Z,77.07
2019-02-21T07:46:43.228Z,76.01
2019-02-21T07:56:44.291Z,76.25
2019-02-21T08:06:43.208Z,75.92
2019-02-21T08:16:43.402Z,73.85
2019-02-21T08:26:43.518Z,73.03
2019-02-21T08:36:44.289Z,74.53
2019-02-21T08:46:43.310Z,74.49
2019-02-21T08:56:43.242Z,75.57
2019-02-21T09:06:44.457Z,74.84
2019-02-21T09:16:43.373Z,73.17
2019-02-21T09:26:43.374Z,72.42
2019-02-21T09:36:43.417Z,72.32
2019-02-21T09:46:43.384Z,72.05
2019-02-21T09:56:52.475Z,70.25
2019-02-21T10:06:43.800Z,69.40
2019-02-21T10:16:45.809Z,69.79
2019-02-21T10:26:43.444Z,71.10
2019-02-21T10:36:45.005Z,71.32
2019-02-21T10:46:43.390Z,68.24
2019-02-21T10:56:43.394Z,70.80
2019-02-21T11:06:44.663Z,72.22
2019-02-21T11:16:43.199Z,72.97
2019-02-21T11:26:43.341Z,73.53
2019-02-21T11:36:43.976Z,67.71
2019-02-21T11:46:43.361Z,68.30
2019-02-21T11:56:43.301Z,67.32
2019-02-21T12:06:43.479Z,65.20
2019-02-21T12:16:44.042Z,61.55
2019-02-21T12:26:43.364Z,64.17
2019-02-21T12:36:43.397Z,63.41
2019-02-21T12:46:45.567Z,62.20
2019-02-21T12:56:44.076Z,59.43
2019-02-21T13:06:43.353Z,58.66
2019-02-21T13:26:52.837Z,58.38
2019-02-21T13:36:52.063Z,60.97
2019-02-21T13:46:51.139Z,61.45
2019-02-21T13:56:51.382Z,62.21
2019-02-21T14:06:51.206Z,67.99
2019-02-21T14:16:51.294Z,67.08
2019-02-21T14:36:56.975Z,66.77
2019-02-21T14:46:56.575Z,66.54
2019-02-21T14:57:00.375Z,65.70
2019-02-21T15:06:56.642Z,66.66
2019-02-21T15:16:56.597Z,68.17
2019-02-21T15:27:07.866Z,66.77
2019-02-21T15:36:57.346Z,69.12
2019-02-21T15:46:57.379Z,68.53
2019-02-21T15:56:58.486Z,69.71
2019-02-21T16:06:58.471Z,68.77
2019-02-21T16:16:56.657Z,68.71
2019-02-21T16:26:57.384Z,69.87
2019-02-21T16:37:02.434Z,70.84
2019-02-21T16:46:56.484Z,73.54
2019-02-21T16:56:56.561Z,76.61
2019-02-21T17:06:57.412Z,77.16
2019-02-21T17:16:56.590Z,79.46
2019-02-21T17:26:56.491Z,83.13
2019-02-21T17:36:57.609Z,84.07
2019-02-21T17:46:56.759Z,85.20
2019-02-21T17:56:56.713Z,83.82
2019-02-21T18:06:56.634Z,83.64
2019-02-21T18:16:56.518Z,83.84
2019-02-21T18:26:56.506Z,83.73
2019-02-21T18:36:56.473Z,83.77
2019-02-21T18:46:56.748Z,83.54
2019-02-21T18:56:56.434Z,83.42
2019-02-21T19:06:56.592Z,83.44
2019-02-21T19:16:56.539Z,83.77
2019-02-21T19:26:57.655Z,83.68
2019-02-21T19:36:56.521Z,84.37
2019-02-21T19:46:56.516Z,82.72
2019-02-21T19:56:56.465Z,82.96
2019-02-21T20:06:56.496Z,83.68
2019-02-21T20:16:56.532Z,82.07
2019-02-21T20:26:56.780Z,81.73
2019-02-21T20:36:56.416Z,81.55
2019-02-21T20:47:00.367Z,80.96
2019-02-21T20:56:57.402Z,81.09
2019-02-21T21:06:56.518Z,81.07
2019-02-21T21:16:56.447Z,81.21
2019-02-21T21:26:56.436Z,80.59
2019-02-21T21:36:56.388Z,80.56
2019-02-21T21:46:56.575Z,81.00
2019-02-21T21:56:56.550Z,81.19
2019-02-21T22:06:56.448Z,81.90
2019-02-21T22:16:56.516Z,81.99
2019-02-21T22:26:56.572Z,82.32
2019-02-21T22:36:56.478Z,82.77
2019-02-21T22:46:56.491Z,82.35
2019-02-21T22:56:56.416Z,83.26
2019-02-21T23:06:56.450Z,82.77
2019-02-21T23:16:56.536Z,83.09
2019-02-21T23:26:56.515Z,83.09
2019-02-21T23:36:57.109Z,83.27
2019-02-21T23:46:56.421Z,82.90
2019-02-21T23:56:56.548Z,83.53
